Terminal Aerodrome Forecast
Issued by NWS

Home | Current Version | Previous Version | Text Only | Print | Product List | Glossary On
Versions: 1 2 3 4 5 6 7 8 9 10 11 12
000
FTUS43 KBIS 301730
TAFMOT
TAF
KMOT 301730Z 3018/0118 14014G21KT P6SM VCSH SCT100 BKN150
     FM302300 14012KT P6SM BKN200
     FM010200 14006KT P6SM SCT200=

USA.gov is the U.S. government's official web portal to all federal, state and local government web resources and services.